Latest Weather Observations for Mount Keith

IDW60801

Issued at 12:53 pm WST Monday 30 March 2020 (issued every 10 minutes, with the page automatically refreshed every 10 minutes)

About weather observations | Map of weather stations | Latest weather observations for WA | Other Formats
Station Details ID: 512019 Name: MOUNT KEITH Lat: -27.29 Lon: 120.55 Height: 542.33 m
Data from the previous 72 hours. | See also: Recent months for locations in Western Australia
Date/Time
WST
Temp
°C
App
Temp
°C
Dew
Point
°C
Rel
Hum
%
Delta-T
°C
Wind Press
QNH
hPa
Press
MSL
hPa
Rain since
9am
mm
Dir  Spd
km/h
Gust
km/h
Spd
kts
Gust
kts
30/12:30pm 29.0 26.0 10.6 32 10.7 NE 17 24 9 13 1015.5 1011.8 0.0
30/12:00pm 28.6 26.4 10.8 33 10.4 ENE 13 24 7 13 1016.1 1012.4 0.0
30/11:30am 27.4 24.0 10.6 35 9.7 NE 19 28 10 15 1016.5 1012.9 0.0
30/11:00am 26.8 23.9 10.9 37 9.2 ENE 17 26 9 14 1017.1 1013.4 0.0
30/10:30am 25.9 22.6 10.9 39 8.6 ENE 19 28 10 15 1017.5 1013.8 0.0
30/10:00am 25.3 21.4 10.7 40 8.4 ENE 22 30 12 16 1017.8 1014.1 0.0
30/09:30am 24.2 20.4 11.2 44 7.5 ENE 22 32 12 17 1017.7 1014.0 0.0
30/09:00am 23.4 19.6 11.1 46 7.0 ENE 22 32 12 17 1017.8 1014.1 0.0
30/08:30am 22.8 19.3 10.9 47 6.8 ENE 20 26 11 14 1017.9 1014.2 0.0
30/08:00am 21.6 18.1 11.0 51 6.0 ENE 20 28 11 15 1017.9 1014.2 0.0
30/07:30am 21.2 17.9 11.0 52 5.8 E 19 26 10 14 1017.7 1014.0 0.0
30/07:00am 19.6 17.7 10.6 56 5.0 ESE 11 15 6 8 1017.5 1013.8 0.0
30/06:30am 18.3 16.5 9.6 57 4.7 ESE 9 11 5 6 1017.3 1013.6 0.0
30/06:00am 17.6 16.0 8.7 56 4.7 ESE 7 9 4 5 1017.1 1013.4 0.0
30/05:30am 18.1 16.5 8.7 54 5.0 ESE 7 9 4 5 1016.8 1013.2 0.0
30/05:00am 18.6 16.5 8.3 51 5.5 E 9 11 5 6 1016.5 1012.9 0.0
30/04:30am 19.1 17.0 8.1 49 5.8 ESE 9 13 5 7 1016.3 1012.6 0.0
30/04:00am 19.3 16.5 6.8 44 6.5 SE 11 13 6 7 1016.0 1012.3 0.0
30/03:30am 19.8 16.4 5.8 40 7.1 SE 13 15 7 8 1016.0 1012.3 0.0
30/03:00am 20.3 16.8 5.5 38 7.5 SE 13 17 7 9 1016.0 1012.3 0.0
30/02:30am 20.4 16.6 4.0 34 8.1 SSE 13 17 7 9 1015.9 1012.2 0.0
30/02:00am 20.5 16.6 3.3 32 8.4 SSE 13 15 7 8 1015.9 1012.2 0.0
30/01:30am 21.0 17.2 3.7 32 8.5 SSE 13 15 7 8 1016.1 1012.4 0.0
30/01:00am 21.7 18.3 3.9 31 8.8 SE 11 13 6 7 1016.1 1012.4 0.0
30/12:30am 21.8 18.4 3.9 31 8.9 SE 11 13 6 7 1016.1 1012.4 0.0
30/12:00am 22.4 19.0 4.0 30 9.2 SE 11 15 6 8 1016.2 1012.5 0.0
 
Date/Time
WST
Temp
°C
App
Temp
°C
Dew
Point
°C
Rel
Hum
%
Delta-T
°C
Wind Press
QNH
hPa
Press
MSL
hPa
Rain since
9am
mm
Dir  Spd
km/h
Gust
km/h
Spd
kts
Gust
kts
29/11:30pm 23.0 19.2 4.0 29 9.5 SE 13 17 7 9 1016.4 1012.7 0.0
29/11:00pm 23.7 19.2 4.1 28 9.9 SE 17 20 9 11 1016.6 1013.0 0.0
29/10:30pm 24.1 19.2 4.0 27 10.2 SE 19 24 10 13 1016.7 1013.1 0.0
29/10:00pm 24.5 19.5 4.8 28 10.1 SSE 20 28 11 15 1016.8 1013.2 0.0
29/09:30pm 25.0 20.4 6.7 31 9.8 SSE 20 26 11 14 1016.5 1012.9 0.0
29/09:00pm 25.7 21.5 7.3 31 10.0 SSE 19 24 10 13 1016.4 1012.7 0.0
29/08:30pm 26.5 22.7 7.5 30 10.4 SSE 17 20 9 11 1016.3 1012.6 0.0
29/08:00pm 27.1 23.8 8.0 30 10.5 S 15 20 8 11 1016.2 1012.5 0.0
29/07:30pm 27.7 26.2 9.0 31 10.5 S 7 9 4 5 1015.9 1012.2 0.0
29/07:00pm 28.2 26.3 9.0 30 10.8 SSW 9 11 5 6 1015.7 1012.0 0.0
29/06:30pm 28.6 26.2 8.8 29 11.2 SSW 11 17 6 9 1015.4 1011.7 0.0
29/06:00pm 29.1 27.1 8.7 28 11.5 SW 9 13 5 7 1015.1 1011.4 0.0
29/05:30pm 29.8 28.4 8.8 27 11.9 WSW 6 9 3 5 1014.8 1011.2 0.0
29/05:00pm 30.2 28.2 8.6 26 12.2 WSW 9 15 5 8 1014.8 1011.2 0.0
29/04:30pm 29.6 27.7 9.2 28 11.6 SW 9 11 5 6 1014.8 1011.2 0.0
29/04:00pm 29.6 27.6 8.6 27 11.9 SW 9 17 5 9 1014.7 1011.0 0.0
29/03:30pm 30.0 27.7 9.0 27 12.0 SW 11 19 6 10 1014.8 1011.2 0.0
29/03:00pm 29.5 27.6 9.1 28 11.6 WNW 9 13 5 7 1014.8 1011.2 0.0
29/02:30pm 29.2 26.8 8.8 28 11.5 S 11 17 6 9 1015.2 1011.5 0.0
29/02:00pm 29.4 26.3 9.0 28 11.6 SSW 15 22 8 12 1015.4 1011.7 0.0
29/01:30pm 29.5 27.0 9.6 29 11.4 SSW 13 24 7 13 1015.6 1011.9 0.0
29/01:00pm 29.8 27.4 9.9 29 11.5 SW 13 20 7 11 1015.8 1012.1 0.0
29/12:30pm 29.0 26.7 10.6 32 10.7 SSW 13 20 7 11 1015.8 1012.1 0.0
29/12:00pm 29.1 26.6 11.2 33 10.5 S 15 22 8 12 1016.1 1012.4 0.0
29/11:30am 27.4 25.9 10.6 35 9.7 WSW 9 13 5 7 1016.4 1012.7 0.0
29/11:00am 27.0 25.9 10.7 36 9.4 SSE 7 11 4 6 1016.7 1013.1 0.0
29/10:30am 26.4 24.9 10.5 37 9.1 S 9 15 5 8 1017.2 1013.5 0.0
29/10:00am 26.0 23.3 10.2 37 9.0 ESE 15 22 8 12 1017.4 1013.7 0.0
29/09:30am 24.6 22.3 10.5 41 8.0 ESE 13 26 7 14 1017.6 1013.9 0.0
29/09:00am 23.5 21.6 10.6 44 7.3 SE 11 19 6 10 1017.8 1014.1 0.0
29/08:30am 23.0 20.3 10.4 45 7.1 SE 15 20 8 11 1017.4 1013.7 0.0
29/08:00am 22.4 19.4 10.5 47 6.7 SE 17 22 9 12 1017.1 1013.4 0.0
29/07:30am 21.8 18.8 10.6 49 6.3 SE 17 24 9 13 1016.5 1012.9 0.0
29/07:00am 21.5 19.4 11.2 52 5.8 SE 13 15 7 8 1016.4 1012.7 0.0
29/06:30am 21.2 19.1 11.0 52 5.8 SE 13 19 7 10 1016.1 1012.4 0.0
29/06:00am 21.4 18.9 11.1 52 5.8 SSE 15 20 8 11 1015.7 1012.0 0.0
29/05:30am 21.7 19.6 11.1 51 6.0 SSE 13 17 7 9 1015.7 1012.0 0.0
29/05:00am 22.0 20.7 11.4 51 6.0 SE 9 19 5 10 1015.1 1011.4 0.0
29/04:30am 22.2 20.6 11.6 51 6.1 SSE 11 17 6 9 1014.7 1011.0 0.0
29/04:00am 22.4 20.5 11.8 51 6.1 S 13 17 7 9 1014.8 1011.2 0.0
29/03:30am 22.6 20.4 12.0 51 6.1 S 15 20 8 11 1015.1 1011.4 0.0
29/03:00am 22.8 20.5 11.8 50 6.3 S 15 19 8 10 1015.3 1011.6 0.0
29/02:30am 22.9 20.7 12.2 51 6.2 S 15 19 8 10 1015.1 1011.4 0.0
29/02:00am 23.3 20.3 12.0 49 6.6 SSW 19 24 10 13 1015.2 1011.5 0.0
29/01:30am 23.9 20.3 11.9 47 7.0 SSW 22 28 12 15 1015.3 1011.6 0.0
29/01:00am 24.4 21.7 11.7 45 7.4 SSW 17 26 9 14 1015.2 1011.5 0.0
29/12:30am 25.0 22.0 11.9 44 7.6 SSW 19 24 10 13 1015.3 1011.6 0.0
29/12:00am 25.6 22.5 11.7 42 8.1 SSW 19 24 10 13 1015.3 1011.6 0.0
 
Date/Time
WST
Temp
°C
App
Temp
°C
Dew
Point
°C
Rel
Hum
%
Delta-T
°C
Wind Press
QNH
hPa
Press
MSL
hPa
Rain since
9am
mm
Dir  Spd
km/h
Gust
km/h
Spd
kts
Gust
kts
28/11:30pm 26.1 23.0 11.5 40 8.5 SSW 19 26 10 14 1015.3 1011.6 0.0
28/11:00pm 26.5 23.1 10.6 37 9.1 SSW 19 24 10 13 1015.6 1011.9 0.0
28/10:30pm 26.9 23.5 9.3 33 9.9 SSW 17 24 9 13 1015.7 1012.0 0.0
28/10:00pm 27.6 24.4 8.5 30 10.7 SSW 15 24 8 13 1015.8 1012.1 0.0
28/09:30pm 27.7 25.2 8.1 29 10.9 SSW 11 15 6 8 1015.8 1012.1 0.0
28/09:00pm 28.3 25.3 7.5 27 11.5 SSW 13 17 7 9 1015.7 1012.0 0.0
28/08:30pm 28.9 25.7 6.9 25 12.0 SSW 13 17 7 9 1015.6 1011.9 0.0
28/08:00pm 29.4 25.9 5.5 22 12.8 SW 13 15 7 8 1015.2 1011.5 0.0
28/07:30pm 30.6 26.7 3.6 18 14.1 SW 13 19 7 10 1014.5 1010.8 0.0
28/07:00pm 31.2 27.1 4.1 18 14.3 SW 15 20 8 11 1014.2 1010.5 0.0
28/06:30pm 31.5 27.5 5.1 19 14.2 SW 15 19 8 10 1013.8 1010.1 0.0
28/06:00pm 32.5 28.0 5.9 19 14.6 SW 19 28 10 15 1013.4 1009.7 0.0
28/05:30pm 33.4 29.6 7.4 20 14.7 WSW 17 26 9 14 1012.9 1009.2 0.0
28/05:00pm 34.1 30.4 8.0 20 14.9 WSW 17 26 9 14 1012.8 1009.1 0.0
28/04:30pm 34.3 29.9 7.4 19 15.2 W 20 30 11 16 1012.7 1009.0 0.0
28/04:00pm 34.6 28.9 6.8 18 15.6 WSW 26 33 14 18 1012.9 1009.2 0.0
28/03:30pm 34.8 29.4 6.2 17 15.9 WSW 24 35 13 19 1013.0 1009.3 0.0
28/03:00pm 35.2 29.8 6.5 17 16.1 WNW 24 33 13 18 1013.0 1009.3 0.0
28/02:30pm 34.9 29.3 7.1 18 15.7 WNW 26 39 14 21 1013.4 1009.7 0.0
28/02:00pm 34.1 29.7 7.2 19 15.2 WNW 20 32 11 17 1013.6 1009.9 0.0
28/01:30pm 33.5 29.7 8.9 22 14.2 WNW 19 30 10 16 1014.0 1010.3 0.0
28/01:00pm 32.8 31.4 10.8 26 13.0 WNW 9 19 5 10 1014.5 1010.8 0.0
28/12:30pm 33.1 29.8 11.0 26 13.2 W 19 30 10 16 1014.9 1011.3 0.0
28/12:00pm 31.8 29.8 11.6 29 12.1 WSW 13 24 7 13 1015.5 1011.8 0.0
28/11:30am 31.2 28.7 11.1 29 11.9 SW 15 26 8 14 1015.9 1012.2 0.0
28/11:00am 31.2 29.4 12.1 31 11.5 SW 13 24 7 13 1016.3 1012.6 0.0
28/10:30am 30.0 27.5 12.4 34 10.6 SW 17 28 9 15 1016.6 1013.0 0.0
28/10:00am 29.4 26.4 11.9 34 10.4 SW 19 24 10 13 1016.8 1013.2 0.0
28/09:30am 28.6 25.5 11.6 34 10.0 SSW 19 24 10 13 1016.8 1013.2 0.0
28/09:00am 28.0 24.8 11.1 35 9.9 SW 19 22 10 12 1016.9 1013.3 0.0
28/08:30am 27.5 24.4 11.5 37 9.4 SSW 19 24 10 13 1016.9 1013.3 0.0
28/08:00am 26.5 22.4 11.4 39 8.8 SW 24 30 13 16 1016.8 1013.2 0.0
28/07:30am 25.8 22.5 9.6 36 9.1 SW 17 24 9 13 1016.6 1013.0 0.0
28/07:00am 24.4 22.0 8.8 37 8.6 WSW 11 15 6 8 1016.3 1012.6 0.0
28/06:30am 24.4 21.7 8.8 37 8.6 WSW 13 17 7 9 1016.1 1012.4 0.0
28/06:00am 24.4 21.3 8.8 37 8.6 WSW 15 17 8 9 1015.9 1012.2 0.0
28/05:30am 25.4 22.3 8.8 35 9.2 SW 15 20 8 11 1015.9 1012.2 0.0
28/05:00am 26.0 22.0 8.9 34 9.5 SW 20 26 11 14 1015.5 1011.8 0.0
28/04:30am 26.4 23.1 7.9 31 10.2 WSW 15 20 8 11 1015.3 1011.6 0.0
28/04:00am 26.1 22.7 7.7 31 10.1 WSW 15 20 8 11 1014.9 1011.3 0.0
28/03:30am 25.1 22.3 6.8 31 9.8 W 11 11 6 6 1014.6 1010.9 0.0
28/03:00am 25.4 23.4 7.1 31 9.9 WNW 7 11 4 6 1014.5 1010.8 0.0
28/02:59am 25.3 23.3 7.0 31 9.8 WNW 7 11 4 6 1014.5 1010.8 0.0
28/02:35am 25.9 23.1 7.0 30 10.2 W 11 13 6 7 1014.6 1010.9 0.0
28/02:30am 25.8 23.0 6.9 30 10.2 W 11 13 6 7 1014.6 1010.9 0.0
28/02:07am 26.6 24.6 7.1 29 10.6 NW 7 11 4 6 1014.7 1011.0 0.0
28/02:00am 26.5 24.5 7.0 29 10.6 NW 7 9 4 5 1014.7 1011.0 0.0
28/01:30am 28.1 25.3 6.8 26 11.6 NNW 11 13 6 7 1014.7 1011.0 0.0
28/01:00am 28.7 25.8 6.7 25 12.0 WNW 11 13 6 7 1014.7 1011.0 0.0
28/12:32am 28.9 25.3 6.9 25 12.0 NW 15 20 8 11 1014.8 1011.2 0.0
28/12:30am 28.5 25.0 7.1 26 11.7 WNW 15 20 8 11 1014.8 1011.2 0.0
28/12:00am 27.0 24.7 7.5 29 10.7 NW 9 11 5 6 1014.6 1010.9 0.0
 
Date/Time
WST
Temp
°C
App
Temp
°C
Dew
Point
°C
Rel
Hum
%
Delta-T
°C
Wind Press
QNH
hPa
Press
MSL
hPa
Rain since
9am
mm
Dir  Spd
km/h
Gust
km/h
Spd
kts
Gust
kts
27/11:30pm 26.6 24.3 7.6 30 10.4 NW 9 11 5 6 1014.7 1011.0 0.0
27/11:00pm 26.8 25.0 7.3 29 10.6 NW 6 7 3 4 1014.9 1011.3 0.0
27/10:30pm 26.8 24.8 7.3 29 10.6 NW 7 9 4 5 1015.3 1011.6 0.0
27/10:00pm 27.2 25.3 7.6 29 10.8 NW 7 9 4 5 1015.5 1011.8 0.0
27/09:30pm 26.8 26.3 7.8 30 10.4 CALM 0 0 0 0 1015.5 1011.8 0.0
27/09:00pm 27.7 27.4 8.6 30 10.7 CALM 0 0 0 0 1015.5 1011.8 0.0
27/08:30pm 28.5 28.0 7.7 27 11.5 CALM 0 0 0 0 1015.6 1011.9 0.0
27/08:00pm 29.6 29.0 7.5 25 12.3 CALM 0 0 0 0 1015.5 1011.8 0.0
27/07:30pm 30.9 29.0 7.4 23 13.1 NNW 7 9 4 5 1015.4 1011.7 0.0
27/07:00pm 31.7 29.8 7.4 22 13.6 NNW 7 9 4 5 1015.1 1011.4 0.0
27/06:30pm 32.7 31.0 7.5 21 14.2 NW 6 7 3 4 1014.9 1011.3 0.0
27/06:00pm 34.3 32.0 5.8 17 15.7 NW 7 11 4 6 1014.7 1011.0 0.0
27/05:30pm 35.5 32.8 5.8 16 16.5 WNW 9 15 5 8 1014.7 1011.0 0.0
27/05:00pm 36.1 32.8 4.4 14 17.3 SW 11 17 6 9 1014.6 1010.9 0.0
27/04:30pm 36.3 32.2 4.6 14 17.4 W 15 24 8 13 1014.6 1010.9 0.0
27/04:00pm 37.0 34.6 5.1 14 17.7 NNE 7 13 4 7 1014.6 1010.9 0.0
27/03:30pm 36.4 33.7 3.6 13 17.7 S 7 15 4 8 1014.7 1011.0 0.0
27/03:00pm 36.4 33.1 4.6 14 17.4 ESE 11 17 6 9 1014.9 1011.3 0.0
27/02:30pm 36.5 32.4 2.5 12 18.1 NE 13 20 7 11 1015.3 1011.6 0.0
27/02:00pm 35.7 32.5 3.0 13 17.4 N 9 17 5 9 1015.6 1011.9 0.0
27/01:30pm 35.3 31.5 3.8 14 17.0 NE 13 22 7 12 1016.0 1012.3 0.0
27/01:00pm 34.6 30.5 4.2 15 16.4 NNE 15 26 8 14 1016.5 1012.9 0.0

Other formats

Comma delimited format used in spreadsheet applications
http://www.bom.gov.au/fwo/IDW60801/IDW60801.99434.axf

JavaScript Object Notation format (JSON) in row-major order
http://www.bom.gov.au/fwo/IDW60801/IDW60801.99434.json

Data quality

Most of these data are generated automatically and are frequently updated. Quality checks on data are not normally performed. It is possible for incorrect values to appear. Refer to information at About Latest Weather Observations and please check the disclaimer before using these data.